Luiziana, Brazil
Current Conditions -  °F | °C
As of 6:00 PM on Friday 31 Oct 2014 (Local Time) from SBMG Reporting Station
Few Clouds Few Clouds  
Wind Chill: 86°   Ceiling: Unl
Heat Index: 89°   Visibility: 6mi
Dew Point: 68°   Wind: 5mph
Humidity: 55%   Direction: 290°WNW
Pressure: 29.85"   Gusts: NA
Location:  24.29°S, 52.28°W
Report Text: SBMG 312000Z 29004KT 9999 FEW030 30/20 Q1011
Loading
Personal Weather Stations






























Interactive Weather Map
Tropical Storm Tracking
New forecast layout! Learn more

10-Day Weather Forecast

Advertisements
Track Severe Weather on mobile